Impacts TAF Board INFO
FOR SITUATIONAL AWARENESS. NOT TO BE USED FOR FLIGHT PLANNING PURPOSES.
IDs:

KDCA - Washington/National, VA, US

Issued at 2330 UTC 11 Dec 2017
Updated at 0449 UTC 12 Dec 2017
Potential Impact None Slight Moderate High
Time<<13/05Z 13/06Z 13/07Z 13/08Z 13/09Z 13/10Z 13/11Z 13/12Z 13/13Z 13/14Z 13/15Z 13/16Z 13/17Z
Type PRVL
VIS >6
CIG --
Cover SCT
FltCat VFR
WX --
WDir 300
WSpd 15
WGst 25

Raw TAF
KDCA 112330Z 1200/1306 15005KT P6SM SCT120
  FM120800 18008KT P6SM OVC100
  FM121400 22009KT P6SM BKN120
  FM121700 27012KT P6SM BKN045
  FM122000 30018G33KT P6SM BKN040
  FM130100 30015G25KT P6SM SCT050


METAR Board
Radar Display
Forecast Discussion

FOR SITUATIONAL AWARENESS. NOT TO BE USED FOR FLIGHT PLANNING PURPOSES.